createdAt,value
2023-01-21T00:00:33.462Z,-2.926
2023-01-21T00:01:33.223Z,-2.916
2023-01-21T00:02:32.976Z,-2.977
2023-01-21T00:03:32.827Z,-2.916
2023-01-21T00:04:32.835Z,-2.948
2023-01-21T00:05:33.605Z,-2.937
2023-01-21T00:06:32.946Z,-2.948
2023-01-21T00:07:33.648Z,-2.942
2023-01-21T00:08:33.338Z,-2.977
2023-01-21T00:09:33.075Z,-2.918
2023-01-21T00:10:33.316Z,-2.884
2023-01-21T00:11:33.068Z,-2.865
2023-01-21T00:12:32.898Z,-2.940
2023-01-21T00:13:33.640Z,-2.929
2023-01-21T00:14:33.411Z,-2.932
2023-01-21T00:15:33.163Z,-2.924
2023-01-21T00:16:33.128Z,-2.900
2023-01-21T00:17:32.892Z,-2.940
2023-01-21T00:18:33.679Z,-2.905
2023-01-21T00:19:33.408Z,-2.889
2023-01-21T00:20:33.520Z,-2.868
2023-01-21T00:21:33.305Z,-2.900
2023-01-21T00:22:32.987Z,-2.902
2023-01-21T00:23:32.739Z,-2.884
2023-01-21T00:24:33.524Z,-2.910
2023-01-21T00:25:33.262Z,-2.932
2023-01-21T00:26:32.990Z,-2.932
2023-01-21T00:27:33.618Z,-2.921
2023-01-21T00:28:33.306Z,-2.902
2023-01-21T00:29:33.291Z,-2.876
2023-01-21T00:30:33.669Z,-2.900
2023-01-21T00:31:33.256Z,-2.929
2023-01-21T00:32:33.088Z,-2.902
2023-01-21T00:33:32.841Z,-2.908
2023-01-21T00:34:33.528Z,-2.868
2023-01-21T00:35:33.364Z,-2.918
2023-01-21T00:36:33.059Z,-2.862
2023-01-21T00:37:33.062Z,-2.897
2023-01-21T00:38:32.802Z,-2.900
2023-01-21T00:39:33.554Z,-2.921
2023-01-21T00:40:33.789Z,-2.921
2023-01-21T00:41:33.528Z,-2.921
2023-01-21T00:42:33.232Z,-2.956
2023-01-21T00:43:32.871Z,-2.985
2023-01-21T00:44:33.560Z,-2.953
2023-01-21T00:45:33.278Z,-2.932
2023-01-21T00:46:33.152Z,-2.969
2023-01-21T00:47:32.984Z,-2.916
2023-01-21T00:48:32.687Z,-2.913
2023-01-21T00:49:33.454Z,-2.908
2023-01-21T00:50:33.400Z,-2.921
2023-01-21T00:51:33.289Z,-2.945
2023-01-21T00:52:33.110Z,-2.918
2023-01-21T00:53:32.789Z,-2.929
2023-01-21T00:54:33.531Z,-2.910
2023-01-21T00:55:33.460Z,-2.918
2023-01-21T00:56:33.775Z,-2.948
2023-01-21T00:57:33.319Z,-2.892
2023-01-21T00:58:33.598Z,-2.926
2023-01-21T00:59:33.162Z,-2.948
2023-01-21T01:00:33.553Z,-2.937
2023-01-21T01:01:33.533Z,-2.937
2023-01-21T01:02:33.502Z,-2.913
2023-01-21T01:03:33.300Z,-2.900
2023-01-21T01:04:33.034Z,-2.900
2023-01-21T01:05:32.819Z,-2.900
2023-01-21T01:06:33.566Z,-2.948
2023-01-21T01:07:33.320Z,-2.932
2023-01-21T01:08:33.102Z,-2.908
2023-01-21T01:09:32.935Z,-2.854
2023-01-21T01:10:33.063Z,-2.889
2023-01-21T01:11:32.867Z,-2.881
2023-01-21T01:13:33.407Z,-2.892
2023-01-21T01:14:33.305Z,-2.878
2023-01-21T01:15:33.054Z,-2.865
2023-01-21T01:16:32.863Z,-2.926
2023-01-21T01:17:33.608Z,-2.902
2023-01-21T01:18:33.429Z,-2.873
2023-01-21T01:19:33.264Z,-2.841
2023-01-21T01:20:33.495Z,-2.889
2023-01-21T01:21:33.227Z,-2.857
2023-01-21T01:22:32.914Z,-2.854
2023-01-21T01:23:32.692Z,-2.868
2023-01-21T01:24:33.375Z,-2.894
2023-01-21T01:25:33.063Z,-2.900
2023-01-21T01:26:32.785Z,-2.862
2023-01-21T01:27:33.491Z,-2.857
2023-01-21T01:28:33.210Z,-2.865
2023-01-21T01:29:33.327Z,-2.940
2023-01-21T01:30:33.453Z,-2.932
2023-01-21T01:31:33.486Z,-2.940
2023-01-21T01:32:33.436Z,-2.940
2023-01-21T01:33:33.355Z,-2.934
2023-01-21T01:34:33.089Z,-2.969
2023-01-21T01:35:32.835Z,-2.945
2023-01-21T01:36:33.564Z,-2.921
2023-01-21T01:37:33.220Z,-2.924
2023-01-21T01:38:33.012Z,-2.921
2023-01-21T01:39:32.801Z,-2.958
2023-01-21T01:40:33.847Z,-2.958
2023-01-21T01:41:33.656Z,-2.905
2023-01-21T01:42:33.456Z,-2.881
2023-01-21T01:43:33.121Z,-2.942
2023-01-21T01:44:32.827Z,-2.980
2023-01-21T01:45:33.464Z,-2.932
2023-01-21T01:46:33.398Z,-2.926
2023-01-21T01:47:33.175Z,-2.921
2023-01-21T01:48:32.963Z,-2.908
2023-01-21T01:49:32.729Z,-2.982
2023-01-21T01:50:33.763Z,-3.012
2023-01-21T01:51:33.565Z,-3.073
2023-01-21T01:52:33.334Z,-3.057
2023-01-21T01:53:33.074Z,-3.169
2023-01-21T01:54:32.836Z,-3.177
2023-01-21T01:55:33.600Z,-3.153
2023-01-21T01:56:33.306Z,-3.151
2023-01-21T01:57:33.070Z,-3.153
2023-01-21T01:58:32.707Z,-3.225
2023-01-21T01:59:33.385Z,-3.225
2023-01-21T02:00:33.378Z,-3.257
2023-01-21T02:01:33.176Z,-3.332
2023-01-21T02:02:33.101Z,-3.297
2023-01-21T02:03:32.833Z,-3.322
2023-01-21T02:04:33.686Z,-3.359
2023-01-21T02:05:32.723Z,-3.402
2023-01-21T02:06:33.429Z,-3.257
2023-01-21T02:07:33.239Z,-3.311
2023-01-21T02:08:32.920Z,-3.362
2023-01-21T02:09:33.589Z,-3.404
2023-01-21T02:10:33.571Z,-3.359
2023-01-21T02:11:33.227Z,-3.463
2023-01-21T02:12:32.880Z,-3.463
2023-01-21T02:13:33.603Z,-3.404
2023-01-21T02:14:33.348Z,-3.460
2023-01-21T02:15:33.095Z,-3.431
2023-01-21T02:16:32.952Z,-3.423
2023-01-21T02:17:32.833Z,-3.468
2023-01-21T02:18:33.653Z,-3.423
2023-01-21T02:19:33.367Z,-3.428
2023-01-21T02:20:33.462Z,-3.412
2023-01-21T02:21:33.209Z,-3.396
2023-01-21T02:22:32.885Z,-3.404
2023-01-21T02:23:32.774Z,-3.386
2023-01-21T02:24:33.455Z,-3.412
2023-01-21T02:25:33.244Z,-3.434
2023-01-21T02:26:32.979Z,-3.428
2023-01-21T02:27:32.825Z,-3.439
2023-01-21T02:28:33.756Z,-3.452
2023-01-21T02:29:33.487Z,-3.479
2023-01-21T02:30:33.624Z,-3.498
2023-01-21T02:31:33.480Z,-3.479
2023-01-21T02:32:33.432Z,-3.420
2023-01-21T02:33:33.043Z,-3.442
2023-01-21T02:34:32.760Z,-3.455
2023-01-21T02:35:33.500Z,-3.527
2023-01-21T02:36:33.171Z,-3.583
2023-01-21T02:37:32.899Z,-3.527
2023-01-21T02:38:33.493Z,-3.514
2023-01-21T02:39:33.315Z,-3.487
2023-01-21T02:40:33.624Z,-3.476
2023-01-21T02:41:33.605Z,-3.466
2023-01-21T02:42:33.348Z,-3.538
2023-01-21T02:43:33.023Z,-3.535
2023-01-21T02:44:32.702Z,-3.573
2023-01-21T02:45:33.374Z,-3.573
2023-01-21T02:46:33.152Z,-3.642
2023-01-21T02:47:33.152Z,-3.615
2023-01-21T02:48:32.825Z,-3.645
2023-01-21T02:49:33.547Z,-3.773
2023-01-21T02:50:33.556Z,-3.840
2023-01-21T02:51:33.358Z,-3.783
2023-01-21T02:52:33.056Z,-3.671
2023-01-21T02:53:32.837Z,-3.767
2023-01-21T02:54:33.519Z,-3.717
2023-01-21T02:55:33.163Z,-3.741
2023-01-21T02:56:32.967Z,-3.824
2023-01-21T02:57:32.839Z,-3.794
2023-01-21T02:58:33.774Z,-3.808
2023-01-21T02:59:33.450Z,-3.813
2023-01-21T03:00:33.508Z,-3.850
2023-01-21T03:01:33.429Z,-3.946
2023-01-21T03:02:33.449Z,-4.013
2023-01-21T03:03:33.048Z,-4.069
2023-01-21T03:04:32.787Z,-4.069
2023-01-21T03:05:33.540Z,-4.091
2023-01-21T03:06:33.296Z,-3.968
2023-01-21T03:07:33.037Z,-3.893
2023-01-21T03:08:32.811Z,-3.896
2023-01-21T03:09:33.478Z,-3.890
2023-01-21T03:10:33.611Z,-3.973
2023-01-21T03:11:33.415Z,-3.976
2023-01-21T03:12:33.209Z,-3.965
2023-01-21T03:13:32.967Z,-3.976
2023-01-21T03:14:32.693Z,-3.962
2023-01-21T03:15:33.463Z,-3.960
2023-01-21T03:16:33.196Z,-3.973
2023-01-21T03:17:33.080Z,-3.976
2023-01-21T03:18:32.727Z,-3.952
2023-01-21T03:19:33.557Z,-3.904
2023-01-21T03:20:33.563Z,-3.813
2023-01-21T03:21:33.324Z,-3.866
2023-01-21T03:22:33.035Z,-3.794
2023-01-21T03:23:32.670Z,-3.754
2023-01-21T03:24:33.301Z,-3.727
2023-01-21T03:25:33.002Z,-3.695
2023-01-21T03:26:32.806Z,-3.679
2023-01-21T03:27:32.694Z,-3.674
2023-01-21T03:28:33.389Z,-3.607
2023-01-21T03:29:33.179Z,-3.618
2023-01-21T03:30:33.134Z,-3.615
2023-01-21T03:31:33.230Z,-3.671
2023-01-21T03:32:33.007Z,-3.703
2023-01-21T03:33:32.871Z,-3.682
2023-01-21T03:34:33.656Z,-3.674
2023-01-21T03:35:33.336Z,-3.671
2023-01-21T03:36:33.060Z,-3.658
2023-01-21T03:37:32.777Z,-3.682
2023-01-21T03:38:32.831Z,-3.653
2023-01-21T03:39:34.135Z,-3.626
2023-01-21T03:40:33.496Z,-3.690
2023-01-21T03:41:33.169Z,-3.685
2023-01-21T03:42:32.912Z,-3.634
2023-01-21T03:43:33.379Z,-3.621
2023-01-21T03:45:32.939Z,-3.642
2023-01-21T03:46:32.794Z,-3.621
2023-01-21T03:47:33.506Z,-3.610
2023-01-21T03:48:33.179Z,-3.623
2023-01-21T03:49:32.854Z,-3.634
2023-01-21T03:50:34.054Z,-3.695
2023-01-21T03:51:33.049Z,-3.746
2023-01-21T03:52:32.799Z,-3.789
2023-01-21T03:53:33.522Z,-3.832
2023-01-21T03:54:33.323Z,-3.791
2023-01-21T03:55:33.004Z,-3.858
2023-01-21T03:56:32.695Z,-3.840
2023-01-21T03:57:33.375Z,-3.874
2023-01-21T03:58:33.151Z,-3.840
2023-01-21T03:59:32.920Z,-3.845
2023-01-21T04:00:34.324Z,-3.824
2023-01-21T04:01:33.319Z,-3.775
2023-01-21T04:02:33.045Z,-3.767
2023-01-21T04:03:32.924Z,-3.727
2023-01-21T04:04:33.624Z,-3.674
2023-01-21T04:05:33.307Z,-3.690
2023-01-21T04:06:33.211Z,-3.658
2023-01-21T04:07:32.864Z,-3.605
2023-01-21T04:08:33.601Z,-3.559
2023-01-21T04:09:33.339Z,-3.532
2023-01-21T04:10:33.373Z,-3.562
2023-01-21T04:11:33.076Z,-3.586
2023-01-21T04:12:33.237Z,-3.559
2023-01-21T04:16:07.556Z,-3.434
2023-01-21T04:17:08.370Z,-3.458
2023-01-21T04:19:04.004Z,-3.439
2023-01-21T04:20:03.883Z,-3.420
2023-01-21T04:21:04.569Z,-3.423
2023-01-21T04:22:04.399Z,-3.428
2023-01-21T04:23:04.355Z,-3.471
2023-01-21T04:24:04.069Z,-3.471
2023-01-21T04:25:03.976Z,-3.447
2023-01-21T04:26:04.613Z,-3.402
2023-01-21T04:27:04.260Z,-3.423
2023-01-21T04:28:03.925Z,-3.460
2023-01-21T04:29:04.529Z,-3.423
2023-01-21T04:30:04.200Z,-3.450
2023-01-21T04:31:04.097Z,-3.436
2023-01-21T04:32:04.146Z,-3.436
2023-01-21T04:33:03.791Z,-3.450
2023-01-21T04:34:04.508Z,-3.447
2023-01-21T04:35:04.285Z,-3.431
2023-01-21T04:36:04.312Z,-3.516
2023-01-21T04:37:03.915Z,-3.471
2023-01-21T04:38:04.551Z,-3.420
2023-01-21T04:39:04.219Z,-3.386
2023-01-21T04:40:03.919Z,-3.362
2023-01-21T04:41:04.530Z,-3.396
2023-01-21T04:42:04.101Z,-3.428
2023-01-21T04:43:03.735Z,-3.396
2023-01-21T04:44:04.422Z,-3.402
2023-01-21T04:45:04.106Z,-3.410
2023-01-21T04:46:03.808Z,-3.444
2023-01-21T04:47:04.506Z,-3.434
2023-01-21T04:48:04.166Z,-3.380
2023-01-21T04:49:03.922Z,-3.428
2023-01-21T04:50:03.670Z,-3.332
2023-01-21T04:51:04.698Z,-3.356
2023-01-21T04:53:04.551Z,-3.311
2023-01-21T04:54:04.445Z,-3.335
2023-01-21T04:55:04.089Z,-3.308
2023-01-21T04:56:04.456Z,-3.308
2023-01-21T04:57:04.147Z,-3.284
2023-01-21T04:58:04.533Z,-3.308
2023-01-21T04:59:04.471Z,-3.305
2023-01-21T05:00:04.115Z,-3.356
2023-01-21T05:01:03.898Z,-3.332
2023-01-21T05:02:03.870Z,-3.402
2023-01-21T05:03:04.770Z,-3.391
2023-01-21T05:04:04.527Z,-3.380
2023-01-21T05:05:04.192Z,-3.383
2023-01-21T05:06:03.855Z,-3.348
2023-01-21T05:07:04.562Z,-3.338
2023-01-21T05:08:04.428Z,-3.305
2023-01-21T05:09:04.192Z,-3.257
2023-01-21T05:10:03.852Z,-3.220
2023-01-21T05:11:04.571Z,-3.244
2023-01-21T05:12:04.302Z,-3.249
2023-01-21T05:13:03.970Z,-3.204
2023-01-21T05:14:04.633Z,-3.287
2023-01-21T05:15:04.255Z,-3.271
2023-01-21T05:16:03.918Z,-3.244
2023-01-21T05:17:04.049Z,-3.183
2023-01-21T05:18:03.767Z,-3.196
2023-01-21T05:19:04.566Z,-3.161
2023-01-21T05:20:04.199Z,-3.244
2023-01-21T05:21:03.872Z,-3.172
2023-01-21T05:22:04.586Z,-3.188
2023-01-21T05:23:04.234Z,-3.161
2023-01-21T05:24:03.990Z,-3.188
2023-01-21T05:25:04.622Z,-3.196
2023-01-21T05:26:04.428Z,-3.209
2023-01-21T05:27:04.086Z,-3.225
2023-01-21T05:28:03.879Z,-3.241
2023-01-21T05:29:04.622Z,-3.236
2023-01-21T05:30:04.289Z,-3.188
2023-01-21T05:31:04.118Z,-3.207
2023-01-21T05:32:04.103Z,-3.132
2023-01-21T05:33:04.071Z,-3.167
2023-01-21T05:34:03.785Z,-3.132
2023-01-21T05:35:04.500Z,-3.153
2023-01-21T05:36:04.135Z,-3.180
2023-01-21T05:37:03.696Z,-3.156
2023-01-21T05:38:04.328Z,-3.052
2023-01-21T05:39:04.088Z,-3.140
2023-01-21T05:40:03.702Z,-3.052
2023-01-21T05:42:04.363Z,-3.060
2023-01-21T05:43:04.103Z,-3.033
2023-01-21T05:44:03.770Z,-3.028
2023-01-21T05:45:04.572Z,-3.046
2023-01-21T05:46:04.360Z,-3.006
2023-01-21T05:47:04.085Z,-3.012
2023-01-21T05:48:03.795Z,-3.012
2023-01-21T05:49:04.532Z,-3.001
2023-01-21T05:50:04.196Z,-2.948
2023-01-21T05:51:03.959Z,-2.950
2023-01-21T05:52:03.790Z,-2.940
2023-01-21T05:53:04.467Z,-2.974
2023-01-21T05:54:04.214Z,-2.924
2023-01-21T05:55:08.845Z,-2.945
2023-01-21T05:56:03.743Z,-2.945
2023-01-21T05:57:04.389Z,-2.974
2023-01-21T05:58:04.112Z,-2.950
2023-01-21T05:59:03.763Z,-2.932
2023-01-21T06:00:04.466Z,-2.956
2023-01-21T06:01:04.283Z,-2.921
2023-01-21T06:02:04.414Z,-2.910
2023-01-21T06:03:04.355Z,-2.905
2023-01-21T06:04:04.330Z,-2.894
2023-01-21T06:05:04.271Z,-2.892
2023-01-21T06:06:03.872Z,-2.905
2023-01-21T06:07:04.610Z,-2.878
2023-01-21T06:08:04.313Z,-2.873
2023-01-21T06:09:03.966Z,-2.857
2023-01-21T06:10:04.643Z,-2.873
2023-01-21T06:11:04.319Z,-2.902
2023-01-21T06:12:03.977Z,-2.881
2023-01-21T06:13:04.531Z,-2.905
2023-01-21T06:14:04.211Z,-2.849
2023-01-21T06:15:03.962Z,-2.774
2023-01-21T06:16:04.673Z,-2.779
2023-01-21T06:17:04.398Z,-2.739
2023-01-21T06:18:05.299Z,-2.753
2023-01-21T06:19:03.922Z,-2.734
2023-01-21T06:20:04.632Z,-2.758
2023-01-21T06:21:04.268Z,-2.771
2023-01-21T06:22:03.957Z,-2.750
2023-01-21T06:23:04.664Z,-2.697
2023-01-21T06:24:04.336Z,-2.729
2023-01-21T06:25:03.981Z,-2.742
2023-01-21T06:26:03.774Z,-2.750
2023-01-21T06:27:04.444Z,-2.729
2023-01-21T06:28:04.122Z,-2.745
2023-01-21T06:29:03.813Z,-2.723
2023-01-21T06:30:04.571Z,-2.702
2023-01-21T06:31:04.586Z,-2.678
2023-01-21T06:32:04.882Z,-2.651
2023-01-21T06:33:03.789Z,-2.697
2023-01-21T06:34:04.512Z,-2.689
2023-01-21T06:35:04.554Z,-2.721
2023-01-21T06:36:04.239Z,-2.678
2023-01-21T06:37:03.984Z,-2.691
2023-01-21T06:38:04.690Z,-2.699
2023-01-21T06:39:04.387Z,-2.718
2023-01-21T06:40:04.068Z,-2.742
2023-01-21T06:41:03.838Z,-2.707
2023-01-21T06:42:04.572Z,-2.707
2023-01-21T06:43:04.405Z,-2.729
2023-01-21T06:44:04.035Z,-2.718
2023-01-21T06:45:03.776Z,-2.742
2023-01-21T06:46:04.419Z,-2.739
2023-01-21T06:47:09.382Z,-2.723
2023-01-21T06:48:04.118Z,-2.713
2023-01-21T06:49:03.812Z,-2.718
2023-01-21T06:50:04.516Z,-2.681
2023-01-21T06:51:04.265Z,-2.678
2023-01-21T06:52:04.113Z,-2.678
2023-01-21T06:53:03.733Z,-2.734
2023-01-21T06:54:04.396Z,-2.726
2023-01-21T06:55:04.131Z,-2.753
2023-01-21T06:56:03.767Z,-2.726
2023-01-21T06:57:04.560Z,-2.729
2023-01-21T06:58:04.315Z,-2.742
2023-01-21T06:59:04.281Z,-2.729
2023-01-21T07:00:03.922Z,-2.731
2023-01-21T07:01:03.817Z,-2.745
2023-01-21T07:02:04.733Z,-2.745
2023-01-21T07:03:04.587Z,-2.777
2023-01-21T07:04:04.562Z,-2.745
2023-01-21T07:05:04.291Z,-2.753
2023-01-21T07:06:03.912Z,-2.793
2023-01-21T07:07:04.624Z,-2.739
2023-01-21T07:08:04.331Z,-2.745
2023-01-21T07:09:04.125Z,-2.723
2023-01-21T07:10:03.824Z,-2.718
2023-01-21T07:11:05.522Z,-2.694
2023-01-21T07:12:04.275Z,-2.715
2023-01-21T07:13:03.968Z,-2.718
2023-01-21T07:14:04.723Z,-2.721
2023-01-21T07:15:04.396Z,-2.667
2023-01-21T07:16:06.719Z,-2.641
2023-01-21T07:17:03.847Z,-2.654
2023-01-21T07:18:04.502Z,-2.635
2023-01-21T07:19:04.175Z,-2.633
2023-01-21T07:20:03.828Z,-2.625
2023-01-21T07:21:04.442Z,-2.633
2023-01-21T07:22:04.152Z,-2.611
2023-01-21T07:23:04.070Z,-2.611
2023-01-21T07:24:03.843Z,-2.595
2023-01-21T07:25:04.559Z,-2.587
2023-01-21T07:26:04.299Z,-2.606
2023-01-21T07:27:04.003Z,-2.601
2023-01-21T07:28:03.937Z,-2.584
2023-01-21T07:29:03.899Z,-2.574
2023-01-21T07:30:04.647Z,-2.579
2023-01-21T07:31:04.703Z,-2.582
2023-01-21T07:32:04.278Z,-2.571
2023-01-21T07:33:04.291Z,-2.547
2023-01-21T07:34:04.079Z,-2.566
2023-01-21T07:35:03.755Z,-2.539
2023-01-21T07:36:03.879Z,-2.544
2023-01-21T07:37:04.580Z,-2.568
2023-01-21T07:38:04.291Z,-2.528
2023-01-21T07:39:04.143Z,-2.536
2023-01-21T07:40:03.899Z,-2.539
2023-01-21T07:41:04.619Z,-2.542
2023-01-21T07:42:04.371Z,-2.542
2023-01-21T07:43:04.031Z,-2.531
2023-01-21T07:44:03.931Z,-2.547
2023-01-21T07:45:04.707Z,-2.502
2023-01-21T07:46:04.503Z,-2.504
2023-01-21T07:47:04.488Z,-2.499
2023-01-21T07:48:04.196Z,-2.478
2023-01-21T07:49:03.979Z,-2.499
2023-01-21T07:50:03.760Z,-2.494
2023-01-21T07:51:04.738Z,-2.491
2023-01-21T07:52:03.997Z,-2.480
2023-01-21T07:53:03.819Z,-2.467
2023-01-21T07:54:04.519Z,-2.448
2023-01-21T07:55:04.348Z,-2.459
2023-01-21T07:56:04.092Z,-2.464
2023-01-21T07:57:03.843Z,-2.467
2023-01-21T07:58:04.614Z,-2.464
2023-01-21T07:59:04.453Z,-2.446
2023-01-21T08:00:04.253Z,-2.416
2023-01-21T08:01:04.265Z,-2.435
2023-01-21T08:02:04.174Z,-2.403
2023-01-21T08:03:04.291Z,-2.403
2023-01-21T08:04:04.043Z,-2.419
2023-01-21T08:05:03.762Z,-2.384
2023-01-21T08:06:04.496Z,-2.344
2023-01-21T08:07:04.291Z,-2.376
2023-01-21T08:08:03.986Z,-2.392
2023-01-21T08:09:03.770Z,-2.419
2023-01-21T08:10:04.522Z,-2.366
2023-01-21T08:11:04.338Z,-2.379
2023-01-21T08:12:04.020Z,-2.379
2023-01-21T08:13:03.791Z,-2.376
2023-01-21T08:14:04.547Z,-2.379
2023-01-21T08:15:04.271Z,-2.363
2023-01-21T08:16:04.033Z,-2.341
2023-01-21T08:17:03.932Z,-2.344
2023-01-21T08:18:04.628Z,-2.347
2023-01-21T08:19:04.450Z,-2.339
2023-01-21T08:20:04.164Z,-2.320
2023-01-21T08:21:03.872Z,-2.355
2023-01-21T08:22:04.580Z,-2.291
2023-01-21T08:23:04.363Z,-2.259
2023-01-21T08:24:04.100Z,-2.248
2023-01-21T08:25:03.875Z,-2.192
2023-01-21T08:26:04.623Z,-2.189
2023-01-21T08:27:04.097Z,-2.179
2023-01-21T08:28:03.777Z,-2.131
2023-01-21T08:29:04.499Z,-2.072
2023-01-21T08:30:04.258Z,-2.077
2023-01-21T08:31:03.976Z,-2.016
2023-01-21T08:32:04.511Z,-2.037
2023-01-21T08:33:06.380Z,-2.034
2023-01-21T08:34:04.184Z,-2.026
2023-01-21T08:35:03.956Z,-2.026
2023-01-21T08:36:04.633Z,-2.016
2023-01-21T08:37:04.375Z,-1.965
2023-01-21T08:38:04.148Z,-1.968
2023-01-21T08:39:06.327Z,-1.965
2023-01-21T08:40:04.052Z,-1.946
2023-01-21T08:41:03.726Z,-1.912
2023-01-21T08:42:04.517Z,-1.869
2023-01-21T08:43:04.268Z,-1.783
2023-01-21T08:44:04.006Z,-1.789
2023-01-21T08:45:04.691Z,-1.802
2023-01-21T08:46:04.636Z,-1.799
2023-01-21T08:47:04.503Z,-1.783
2023-01-21T08:48:04.253Z,-1.714
2023-01-21T08:49:04.019Z,-1.709
2023-01-21T08:50:04.692Z,-1.751
2023-01-21T08:51:04.552Z,-1.701
2023-01-21T08:52:04.486Z,-1.647
2023-01-21T08:53:04.191Z,-1.629
2023-01-21T08:54:03.869Z,-1.588
2023-01-21T08:55:05.841Z,-1.594
2023-01-21T08:56:04.566Z,-1.615
2023-01-21T08:57:04.327Z,-1.629
2023-01-21T08:58:04.015Z,-1.658
2023-01-21T08:59:03.882Z,-1.623
2023-01-21T09:00:04.815Z,-1.653
2023-01-21T09:01:04.550Z,-1.661
2023-01-21T09:02:04.654Z,-1.618
2023-01-21T09:03:04.582Z,-1.634
2023-01-21T09:04:04.315Z,-1.607
2023-01-21T09:05:04.196Z,-1.572
2023-01-21T09:06:03.933Z,-1.596
2023-01-21T09:07:04.666Z,-1.538
2023-01-21T09:08:04.442Z,-1.500
2023-01-21T09:09:04.129Z,-1.410
2023-01-21T09:10:03.884Z,-1.361
2023-01-21T09:11:04.650Z,-1.316
2023-01-21T09:12:04.439Z,-1.241
2023-01-21T09:13:04.181Z,-1.255
2023-01-21T09:14:03.846Z,-1.231
2023-01-21T09:15:04.608Z,-1.199
2023-01-21T09:16:04.353Z,-1.183
2023-01-21T09:17:04.315Z,-1.196
2023-01-21T09:18:03.975Z,-1.193
2023-01-21T09:19:03.812Z,-1.148
2023-01-21T09:20:04.384Z,-1.129
2023-01-21T09:21:04.250Z,-1.057
2023-01-21T09:22:03.999Z,-1.046
2023-01-21T09:23:03.759Z,-1.084
2023-01-21T09:24:04.487Z,-0.982
2023-01-21T09:25:04.217Z,-0.878
2023-01-21T09:26:04.702Z,-0.843
2023-01-21T09:27:04.435Z,-0.817
2023-01-21T09:28:04.232Z,-0.833
2023-01-21T09:29:03.934Z,-0.699
2023-01-21T09:30:03.700Z,-0.806
2023-01-21T09:31:04.527Z,-0.761
2023-01-21T09:32:04.390Z,-0.734
2023-01-21T09:33:04.155Z,-0.753
2023-01-21T09:34:03.870Z,-0.750
2023-01-21T09:35:03.702Z,-0.830
2023-01-21T09:36:04.477Z,-0.814
2023-01-21T09:37:04.278Z,-0.870
2023-01-21T09:38:03.967Z,-0.798
2023-01-21T09:39:03.717Z,-0.779
2023-01-21T09:40:06.879Z,-0.755
2023-01-21T09:41:03.790Z,-0.758
2023-01-21T09:42:04.501Z,-0.737
2023-01-21T09:43:04.251Z,-0.715
2023-01-21T09:44:04.026Z,-0.795
2023-01-21T09:45:03.900Z,-0.793
2023-01-21T09:46:04.221Z,-0.854
2023-01-21T09:47:04.206Z,-0.854
2023-01-21T09:48:03.979Z,-0.881
2023-01-21T09:49:03.731Z,-0.934
2023-01-21T09:50:04.530Z,-0.934
2023-01-21T09:51:04.408Z,-0.932
2023-01-21T09:52:04.208Z,-0.793
2023-01-21T09:53:04.044Z,-0.870
2023-01-21T09:54:03.787Z,-0.932
2023-01-21T09:55:04.587Z,-0.937
2023-01-21T09:56:04.366Z,-0.926
2023-01-21T09:57:04.045Z,-0.811
2023-01-21T09:58:03.813Z,-0.729
2023-01-21T09:59:04.459Z,-0.827
2023-01-21T10:00:03.720Z,-0.761
2023-01-21T10:01:04.502Z,-0.779
2023-01-21T10:02:04.484Z,-0.774
2023-01-21T10:03:04.200Z,-0.683
2023-01-21T10:04:03.903Z,-0.790
2023-01-21T10:05:03.882Z,-0.814
2023-01-21T10:06:04.582Z,-0.774
2023-01-21T10:07:04.247Z,-0.795
2023-01-21T10:08:03.930Z,-0.779
2023-01-21T10:09:04.690Z,-0.753
2023-01-21T10:10:04.464Z,-0.747
2023-01-21T10:11:04.186Z,-0.809
2023-01-21T10:12:04.162Z,-0.793
2023-01-21T10:13:03.972Z,-1.020
2023-01-21T10:14:04.680Z,-0.958
2023-01-21T10:15:04.619Z,-0.926
2023-01-21T10:16:04.348Z,-1.065
2023-01-21T10:17:04.491Z,-1.073
2023-01-21T10:18:04.270Z,-1.033
2023-01-21T10:19:03.956Z,-1.062
2023-01-21T10:20:03.780Z,-1.070
2023-01-21T10:21:04.491Z,-1.057
2023-01-21T10:22:04.279Z,-1.073
2023-01-21T10:23:04.002Z,-1.196
2023-01-21T10:24:03.848Z,-1.228
2023-01-21T10:25:04.747Z,-1.225
2023-01-21T10:26:04.502Z,-1.196
2023-01-21T10:27:04.259Z,-1.196
2023-01-21T10:28:04.009Z,-1.201
2023-01-21T10:29:03.802Z,-1.297
2023-01-21T10:30:06.614Z,-1.169
2023-01-21T10:31:04.388Z,-1.183
2023-01-21T10:32:04.743Z,-1.241
2023-01-21T10:33:04.505Z,-1.153
2023-01-21T10:34:04.218Z,-1.129
2023-01-21T10:35:04.013Z,-1.145
2023-01-21T10:36:03.735Z,-1.156
2023-01-21T10:37:04.627Z,-1.084
2023-01-21T10:38:04.362Z,-1.156
2023-01-21T10:39:04.131Z,-1.169
2023-01-21T10:40:03.863Z,-1.193
2023-01-21T10:41:04.584Z,-1.223
2023-01-21T10:42:04.391Z,-1.212
2023-01-21T10:43:04.184Z,-1.207
2023-01-21T10:44:03.949Z,-1.244
2023-01-21T10:45:03.760Z,-1.257
2023-01-21T10:46:04.636Z,-1.159
2023-01-21T10:47:04.554Z,-1.030
2023-01-21T10:48:04.324Z,-1.046
2023-01-21T10:49:04.067Z,-1.052
2023-01-21T10:50:03.823Z,-1.009
2023-01-21T10:51:04.813Z,-1.006
2023-01-21T10:52:03.790Z,-1.044
2023-01-21T10:53:04.551Z,-1.009
2023-01-21T10:54:04.378Z,-0.910
2023-01-21T10:55:04.254Z,-0.974
2023-01-21T10:56:03.954Z,-0.942
2023-01-21T10:57:04.712Z,-0.982
2023-01-21T10:58:04.450Z,-0.878
2023-01-21T10:59:04.239Z,-0.806
2023-01-21T11:00:04.084Z,-0.777
2023-01-21T11:01:03.896Z,-0.934
2023-01-21T11:02:03.975Z,-0.886
2023-01-21T11:03:03.794Z,-0.945
2023-01-21T11:04:04.571Z,-0.795
2023-01-21T11:05:04.332Z,-0.916
2023-01-21T11:06:05.723Z,-0.972
2023-01-21T11:07:04.552Z,-0.753
2023-01-21T11:08:04.660Z,-0.705
2023-01-21T11:09:04.509Z,-0.806
2023-01-21T11:10:04.397Z,-0.742
2023-01-21T11:11:04.468Z,-0.777
2023-01-21T11:12:04.243Z,-0.681
2023-01-21T11:13:03.947Z,-0.491
2023-01-21T11:14:04.726Z,-0.691
2023-01-21T11:15:05.041Z,-0.814
2023-01-21T11:16:03.822Z,-0.750
2023-01-21T11:17:04.591Z,-0.630
2023-01-21T11:18:04.375Z,-0.579
2023-01-21T11:19:04.167Z,-0.657
2023-01-21T11:20:03.885Z,-0.761
2023-01-21T11:21:04.382Z,-0.822
2023-01-21T11:22:04.795Z,-0.769
2023-01-21T11:23:04.650Z,-0.694
2023-01-21T11:24:04.447Z,-0.742
2023-01-21T11:25:04.243Z,-0.643
2023-01-21T11:26:04.040Z,-0.731
2023-01-21T11:27:03.834Z,-0.705
2023-01-21T11:28:04.555Z,-0.619
2023-01-21T11:29:06.165Z,-0.737
2023-01-21T11:30:12.984Z,-0.608
2023-01-21T11:32:19.067Z,-0.686
2023-01-21T11:33:19.056Z,-0.691
2023-01-21T11:34:18.952Z,-0.673
2023-01-21T11:35:18.845Z,-0.558
2023-01-21T11:36:19.631Z,-0.649
2023-01-21T11:37:19.287Z,-0.563
2023-01-21T11:38:18.943Z,-0.507
2023-01-21T11:39:18.690Z,-0.552
2023-01-21T11:40:20.952Z,-0.507
2023-01-21T11:41:19.426Z,-0.526
2023-01-21T11:43:18.863Z,-0.502
2023-01-21T11:44:19.684Z,-0.715
2023-01-21T11:45:19.432Z,-0.742
2023-01-21T11:46:19.316Z,-0.835
2023-01-21T11:47:19.151Z,-0.769
2023-01-21T11:48:19.015Z,-0.870
2023-01-21T11:49:18.727Z,-0.875
2023-01-21T11:50:20.134Z,-0.811
2023-01-21T11:51:19.167Z,-0.758
2023-01-21T11:52:18.992Z,-0.713
2023-01-21T11:53:19.682Z,-0.632
2023-01-21T11:54:19.440Z,-0.646
2023-01-21T11:55:19.416Z,-0.616
2023-01-21T11:56:19.135Z,-0.600
2023-01-21T11:57:18.831Z,-0.542
2023-01-21T11:58:19.596Z,-0.331
2023-01-21T11:59:19.470Z,-0.419
2023-01-21T12:00:19.595Z,-0.523
2023-01-21T12:01:19.376Z,-0.440
2023-01-21T12:02:19.058Z,-0.416
2023-01-21T12:03:19.360Z,-0.320
2023-01-21T12:04:19.216Z,-0.304
2023-01-21T12:05:18.958Z,-0.213
2023-01-21T12:06:18.798Z,-0.195
2023-01-21T12:07:19.519Z,-0.138
2023-01-21T12:08:19.175Z,-0.176
2023-01-21T12:09:18.895Z,-0.203
2023-01-21T12:10:19.657Z,-0.160
2023-01-21T12:12:19.278Z,-0.291
2023-01-21T12:13:19.187Z,-0.333
2023-01-21T12:14:18.904Z,-0.475
2023-01-21T12:15:19.616Z,-0.237
2023-01-21T12:16:19.497Z,-0.515
2023-01-21T12:17:19.283Z,-0.590
2023-01-21T12:18:18.850Z,-0.582
2023-01-21T12:19:19.578Z,-0.430
2023-01-21T12:20:19.691Z,-0.486
2023-01-21T12:21:19.617Z,-0.414
2023-01-21T12:22:19.444Z,-0.395
2023-01-21T12:23:19.230Z,-0.368
2023-01-21T12:24:18.895Z,-0.336
2023-01-21T12:25:19.681Z,-0.176
2023-01-21T12:26:19.427Z,-0.221
2023-01-21T12:27:19.209Z,-0.085
2023-01-21T12:28:18.917Z,-0.304
2023-01-21T12:29:20.634Z,-0.154
2023-01-21T12:30:19.863Z,-0.192
2023-01-21T12:31:19.105Z,-0.293
2023-01-21T12:32:20.331Z,-0.349
2023-01-21T12:33:18.929Z,-0.253
2023-01-21T12:34:19.631Z,-0.352
2023-01-21T12:35:19.673Z,-0.307
2023-01-21T12:36:19.696Z,-0.259
2023-01-21T12:37:19.380Z,-0.355
2023-01-21T12:38:19.112Z,-0.448
2023-01-21T12:39:18.774Z,-0.419